Arches Natl Park, Utah
Current Conditions -  °F | °C
As of 10:53 AM on Thursday 29 Jan 2015 (Local Time) from KCNY Reporting Station
Clear Clear  
Wind Chill:   Ceiling: Unl
Heat Index:   Visibility: 10mi
Dew Point:   Wind: 0mph
Humidity: 65%   Direction: NA
Pressure: 30.36"   Gusts: NA
Location:  38.7°N, 109.75°W
Report Text: KCNY 291753Z AUTO 00000KT 10SM CLR 07/01 A3036 RMK AO2 SLP287 T00670006 10067 21028 51009
Loading
Personal Weather Stations






























Interactive Weather Map New forecast layout! Learn more

10-Day Weather Forecast

Advertisements
Track Severe Weather on mobile